YZV weather

Sept-Îles Airport
Sept-Îles, Quebec, Canada

Public forecast

Using degrees Celsius for public forecast. Weather courtesy of forecast.io.

METAR (pilot weather report)

Retrieved 2019/05/20 01:00 UTC (52 minutes ago):

CYZV 200100Z 03002KT 15SM FEW080 BKN220 06/M00 A3004 RMK AC1CC6 AC TR SLP176

TAF (pilot weather forecast)

Forecast is more than 12 hours old.

Retrieved 2019/05/19 00:42 UTC (1 day ago):

TAF CYZV 192338Z 2000/2024 VRB03KT P6SM FEW060 BKN230 BECMG 2004/2006 08010G20KT FM200600 08010G20KT P6SM BKN030 BKN200 FM201200 09015G25KT P6SM -RA BKN025 OVC080 FM201600 08012G22KT 6SM -RA BR FEW005 OVC010 RMK NXT FCST BY 200600Z